Flight Track Log - Related Links

Times and Time Zones

All times are in EDT time to prevent confusion due to time zone crossing. See the SWA154 flight status page for this flight to view local times or setup timezone preferences in your user account.

Time Position Orientation Groundspeed Altitude Reporting Facility
EDT Latitude Longitude Course Direction KTS MPH feet Rate Location/Type
Mon 08:14:11 AM 32.7833 -96.7667 258° West 223 257 4,100  Level Dallas / Fort Worth TRACON
Mon 08:15:13 AM 32.7175 -96.7742 185° South 221 254 6,600 2,732 Climbing Fort Worth Center
Mon 08:16:14 AM 32.6603 -96.8225 215° Southwest 266 306 9,700 3,197 Climbing Fort Worth Center
Mon 08:17:15 AM 32.6628 -96.9239 272° West 297 342 13,100 3,098 Climbing Fort Worth Center
Mon 08:18:16 AM 32.6694 -97.0253 274° West 305 351 16,000 2,311 Climbing Fort Worth Center
Mon 08:19:00 AM 32.7315 -97.6520 258° West  Level FlightAware Approximate
Mon 08:19:17 AM 32.6772 -97.1358 275° West 335 386 17,800  Level Fort Worth Center
Mon 08:20:18 AM 32.6853 -97.2633 274° West 386 444 19,400 2,016 Climbing Fort Worth Center
Mon 08:21:19 AM 32.6928 -97.3978 274° West 406 467 21,900 2,311 Climbing Fort Worth Center
Mon 08:22:20 AM 32.6997 -97.5239 274° West 407 468 24,100 2,262 Climbing Fort Worth Center
Mon 08:23:21 AM 32.7072 -97.6569 274° West 405 466 26,500 1,820 Climbing Fort Worth Center
Mon 08:24:22 AM 32.7144 -97.7931 274° West 409 471 27,800 2,016 Climbing Fort Worth Center
Mon 08:25:23 AM 32.7033 -97.9272 264° West 410 472 30,600 1,983 Climbing Fort Worth Center
Mon 08:26:23 AM 32.6933 -98.0564 265° West 396 456 31,800 1,884 Climbing Fort Worth Center
Mon 08:27:24 AM 32.6822 -98.1858 264° West 396 456 34,400 1,820 Climbing Fort Worth Center
Mon 08:28:25 AM 32.6717 -98.3086 264° West 378 435 35,500 1,279 Climbing Fort Worth Center
Mon 08:29:26 AM 32.6586 -98.4492 264° West 375 432 37,000 738 Climbing Fort Worth Center
Mon 08:30:27 AM 32.6503 -98.5642 265° West 356 410 37,000  Level Fort Worth Center
Mon 08:31:28 AM 32.6394 -98.6781 264° West 350 403 37,000  Level Fort Worth Center
Mon 08:32:29 AM 32.6283 -98.7911 263° West 349 402 37,000  Level Fort Worth Center
Mon 08:33:30 AM 32.6192 -98.9022 264° West 342 394 37,000  Level Fort Worth Center
Mon 08:34:31 AM 32.6083 -99.0122 263° West 336 387 37,000  Level Fort Worth Center
Mon 08:35:32 AM 32.5975 -99.1236 263° West 338 389 37,000  Level Fort Worth Center
Mon 08:36:33 AM 32.5881 -99.2353 264° West 338 389 37,000  Level Fort Worth Center
Mon 08:37:34 AM 32.5764 -99.3467 263° West 339 390 37,000  Level Fort Worth Center
Mon 08:38:35 AM 32.5647 -99.4578 263° West 339 390 37,000  Level Fort Worth Center
Mon 08:39:36 AM 32.5533 -99.5697 263° West 342 394 37,000  Level Fort Worth Center
Mon 08:40:37 AM 32.5422 -99.6822 263° West 341 392 37,000  Level Fort Worth Center
Mon 08:41:38 AM 32.5300 -99.7944 263° West 340 391 37,000  Level Fort Worth Center
Mon 08:42:39 AM 32.5197 -99.9086 264° West 341 392 37,000  Level Fort Worth Center
Mon 08:43:40 AM 32.5086 -100.0211 263° West 341 392 37,000  Level Fort Worth Center
Mon 08:44:41 AM 32.4964 -100.1550 264° West 342 394 37,000  Level Fort Worth Center
Mon 08:45:42 AM 32.4844 -100.2675 263° West 345 397 37,000  Level Fort Worth Center
Mon 08:46:43 AM 32.4733 -100.3800 263° West 344 396 37,000  Level Fort Worth Center
Mon 08:47:44 AM 32.4614 -100.4928 263° West 347 399 37,000  Level Fort Worth Center
Mon 08:48:46 AM 32.4500 -100.6072 263° West 352 405 37,000  Level Fort Worth Center
Mon 08:49:47 AM 32.4378 -100.7225 263° West 352 405 37,000  Level Fort Worth Center
Mon 08:50:48 AM 32.4256 -100.8383 263° West 357 411 37,000  Level Fort Worth Center
Mon 08:51:49 AM 32.4128 -100.9556 263° West 360 414 37,000  Level Fort Worth Center
Mon 08:52:50 AM 32.3989 -101.0753 262° West 366 421 37,000  Level Fort Worth Center
Mon 08:53:51 AM 32.3864 -101.1967 263° West 372 428 37,000  Level Fort Worth Center
Mon 08:54:52 AM 32.3719 -101.3197 262° West 375 432 37,000  Level Fort Worth Center
Mon 08:55:53 AM 32.3589 -101.4400 263° West 373 429 37,000  Level Fort Worth Center
Mon 08:56:54 AM 32.3447 -101.5572 262° West 364 419 37,000  Level Fort Worth Center
Mon 08:57:56 AM 32.3311 -101.6747 262° West 364 419 37,000  Level Fort Worth Center
Mon 08:58:57 AM 32.3181 -101.7925 263° West 366 421 37,000  Level Fort Worth Center
Mon 08:59:58 AM 32.3008 -101.9356 262° West 367 422 37,000 -49 Level Fort Worth Center
Mon 09:00:59 AM 32.2853 -102.0581 261° West 371 427 36,900 -344 Descending Fort Worth Center
Mon 09:02:00 AM 32.2711 -102.1822 262° West 375 432 36,300 -443 Descending Fort Worth Center
Mon 09:03:01 AM 32.2553 -102.3117 262° West 391 450 36,000 -148 Descending Fort Worth Center
Mon 09:04:02 AM 32.2406 -102.4439 263° West 398 458 36,000  Level Fort Worth Center
Mon 09:05:04 AM 32.2244 -102.5756 262° West 399 459 36,000  Level Fort Worth Center
Mon 09:06:05 AM 32.2097 -102.7033 262° West 398 458 36,000  Level Fort Worth Center
Mon 09:07:06 AM 32.1933 -102.8297 261° West 392 451 36,000  Level Fort Worth Center
Mon 09:08:07 AM 32.1772 -102.9550 261° West 387 445 36,000  Level Fort Worth Center
Mon 09:09:08 AM 32.1628 -103.0775 262° West 379 436 36,000  Level Fort Worth Center
Mon 09:10:10 AM 32.1469 -103.1986 261° West 378 435 36,000  Level Fort Worth Center
Mon 09:11:11 AM 32.1308 -103.3197 261° West 376 433 36,000  Level Fort Worth Center
Mon 09:12:12 AM 32.1156 -103.4411 262° West 375 432 36,000  Level Fort Worth Center
Mon 09:13:13 AM 32.0958 -103.5864 261° West 375 432 36,000  Level Fort Worth Center
Mon 09:13:58 AM 32.0867 -103.6597 262° West 376 433 36,000  Level Albuquerque Center
Mon 09:14:58 AM 32.0703 -103.7806 261° West 375 432 36,000  Level Albuquerque Center
Mon 09:15:59 AM 32.0544 -103.9036 261° West 377 434 36,000  Level Albuquerque Center
Mon 09:16:59 AM 32.0372 -104.0261 261° West 377 434 36,000  Level Albuquerque Center
Mon 09:18:00 AM 32.0217 -104.1483 261° West 377 434 36,000  Level Albuquerque Center
Mon 09:19:00 AM 32.0050 -104.2717 261° West 378 435 36,000 -446 Level Albuquerque Center
Mon 09:20:01 AM 31.9869 -104.3969 260° West 383 441 35,100 -942 Descending Albuquerque Center
Mon 09:21:01 AM 31.9736 -104.5217 263° West 385 443 34,100 -1,041 Descending Albuquerque Center
Mon 09:22:02 AM 31.9583 -104.6761 263° West 392 451 33,000 -992 Descending Albuquerque Center
Mon 09:23:02 AM 31.9453 -104.7925 262° West 396 456 32,100 -1,587 Descending Albuquerque Center
Mon 09:24:03 AM 31.9317 -104.9225 263° West 398 458 29,800 -2,380 Descending Albuquerque Center
Mon 09:25:03 AM 31.9192 -105.0481 263° West 393 452 27,300 -2,380 Descending Albuquerque Center
Mon 09:26:04 AM 31.9117 -105.1639 266° West 365 420 25,000 -2,465 Descending Albuquerque Center
Mon 09:27:12 AM 31.8925 -105.3111 261° West 357 411 22,000 -2,533 Descending Albuquerque Center
Mon 09:28:19 AM 31.8772 -105.4453 262° West 354 407 19,300 -2,230 Descending Albuquerque Center
Mon 09:29:05 AM 31.8736 -105.5325 267° West 356 410 17,800 -2,000 Descending Albuquerque Center
Mon 09:29:19 AM 31.8725 -105.5569 267° West 346 398 17,300 -2,262 Descending Albuquerque Center
Mon 09:30:06 AM 31.8747 -105.6406 272° West 336 387 15,500 -2,262 Descending Albuquerque Center
Mon 09:30:20 AM 31.8733 -105.6644 266° West 328 377 15,000 -2,200 Descending Albuquerque Center
Mon 09:31:06 AM 31.8725 -105.7458 269° West 326 375 13,300 -2,164 Descending Albuquerque Center
Mon 09:31:21 AM 31.8739 -105.7694 274° West 319 367 12,800 -2,164 Descending Albuquerque Center
Mon 09:32:07 AM 31.8733 -105.8475 270° West 316 364 11,100 -2,200 Descending Albuquerque Center
Mon 09:32:21 AM 31.8711 -105.8703 263° West 307 353 10,600 -1,082 Descending Albuquerque Center
Mon 09:33:08 AM 31.8711 -105.9433 270° West 296 341 10,000 -689 Descending Albuquerque Center
Mon 09:33:22 AM 31.8692 -105.9633 263° West 280 322 9,900 -1,300 Descending Albuquerque Center
Mon 09:34:08 AM 31.8675 -106.0289 268° West 266 306 8,700 -1,475 Descending Albuquerque Center
Mon 09:34:23 AM 31.8647 -106.0547 263° West 258 297 8,400 -1,967 Descending Albuquerque Center
Mon 09:35:09 AM 31.8644 -106.1211 270° West 264 304 6,700 -1,900 Descending Albuquerque Center
Mon 09:35:23 AM 31.8636 -106.1425 267° West 266 306 6,500 -200 Descending Albuquerque Center
Mon 09:36:09 AM 31.8622 -106.2039 268° West 253 291 6,500 -197 Level Albuquerque Center
Mon 09:36:24 AM 31.8625 -106.2178 271° West 224 258 6,300 -880 Descending Albuquerque Center
Mon 09:37:24 AM 31.8592 -106.2811 266° West 179 206 5,400 -694 Descending Albuquerque Center
Mon 09:38:25 AM 31.8511 -106.3306 259° West 143 165 4,900 -673 Descending Albuquerque Center
Mon 09:39:11 AM 31.8300 -106.3581 228° Southwest 150 173 4,200 -913 Descending Albuquerque Center
Mon 09:41:00 AM 31.8000 -106.3667 270° West  Level FlightAware Approximate
Mon 09:48:00 AM 31.8072 -106.3764 270° West  Level Estimated
Mon 09:49:00 AM 31.8072 -106.3764 270° West  Level Estimated
Mon 09:50:00 AM 31.8072 -106.3764 270° West  Level Estimated
Mon 09:51:00 AM 31.8072 -106.3764 270° West  Level Estimated

Login

Don't have an account? Register now (free) for customized features, flight alerts, and more!